Time;durP1;ratioP1;P1;durP2;ratioP2;P2;SDS_P1;SDS_P2;PMS_P1;PMS_P2;Temp;Humidity;BMP_temperature;BMP_pressure;BME280_temperature;BME280_humidity;BME280_pressure;Samples;Min_cycle;Max_cycle;Signal;HPM_P1;HPM_P2
2022/11/24 00:01:24;;;;;;;6.43;2.72;;;;;;;7.18;nan;99733.03;5026968;28;20470;-85
2022/11/24 00:03:57;;;;;;;8.20;2.50;;;;;;;7.23;nan;99734.22;5024916;28;20100;-85
2022/11/24 00:06:24;;;;;;;8.50;2.80;;;;;;;7.27;nan;99736.53;5028124;28;20033;-85
2022/11/24 00:08:50;;;;;;;6.82;2.60;;;;;;;7.31;nan;99736.09;5023411;28;20040;-84
2022/11/24 00:11:18;;;;;;;8.48;3.05;;;;;;;7.37;nan;99734.69;5028268;28;20033;-84
2022/11/24 00:13:44;;;;;;;8.25;2.70;;;;;;;7.41;nan;99736.88;5027430;28;20164;-85
2022/11/24 00:16:22;;;;;;;6.13;2.40;;;;;;;7.45;nan;99742.63;5028625;28;20078;-85
2022/11/24 00:18:49;;;;;;;8.57;2.85;;;;;;;7.48;nan;99744.13;5043780;28;20048;-84
2022/11/24 00:21:17;;;;;;;10.20;2.67;;;;;;;7.46;nan;99746.94;5046804;28;20059;-85
2022/11/24 00:23:43;;;;;;;5.53;2.20;;;;;;;7.47;nan;99745.94;5047521;28;20033;-84
2022/11/24 00:26:14;;;;;;;8.07;2.58;;;;;;;7.48;nan;99741.50;5028922;28;20054;-85
2022/11/24 00:28:41;;;;;;;9.40;2.83;;;;;;;7.45;nan;99740.81;5033363;28;20029;-85
2022/11/24 00:31:23;;;;;;;9.45;2.97;;;;;;;7.43;nan;99752.47;5030323;28;20033;-85
2022/11/24 00:33:50;;;;;;;9.63;2.80;;;;;;;7.35;nan;99752.41;5046156;28;20068;-85
2022/11/24 00:36:17;;;;;;;11.65;2.80;;;;;;;7.28;nan;99751.34;5033223;28;20037;-85
2022/11/24 00:38:44;;;;;;;6.93;2.75;;;;;;;7.19;nan;99755.69;5032518;28;20055;-85
2022/11/24 00:41:09;;;;;;;8.25;2.55;;;;;;;7.12;nan;99747.56;5048038;28;20087;-85
2022/11/24 00:43:34;;;;;;;7.25;2.72;;;;;;;7.06;nan;99750.00;5039733;28;20045;-84
2022/11/24 00:46:00;;;;;;;11.77;2.80;;;;;;;7.04;nan;99757.19;5027906;28;20044;-84
2022/11/24 00:48:26;;;;;;;9.98;3.05;;;;;;;7.01;nan;99764.41;5049252;28;20085;-85
2022/11/24 00:51:05;;;;;;;9.52;2.65;;;;;;;6.97;nan;99768.28;5048151;28;20033;-84
2022/11/24 00:53:31;;;;;;;6.82;2.60;;;;;;;6.94;nan;99776.47;5034510;28;20562;-85
2022/11/24 00:55:57;;;;;;;8.20;2.78;;;;;;;6.92;nan;99782.84;5031525;28;20037;-85
2022/11/24 00:58:23;;;;;;;10.57;2.80;;;;;;;6.88;nan;99778.84;5050896;28;20033;-84
2022/11/24 01:00:49;;;;;;;7.90;2.60;;;;;;;6.88;nan;99782.31;5045975;28;20033;-84
2022/11/24 01:03:15;;;;;;;7.03;2.83;;;;;;;6.87;nan;99783.28;5033803;28;20052;-84
2022/11/24 01:05:41;;;;;;;6.38;2.50;;;;;;;6.86;nan;99786.06;5048321;28;20117;-85
2022/11/24 01:08:07;;;;;;;8.70;2.78;;;;;;;6.87;nan;99787.72;5048919;28;20045;-85
2022/11/24 01:10:32;;;;;;;10.02;2.65;;;;;;;6.87;nan;99798.25;5047531;28;20044;-84
2022/11/24 01:12:58;;;;;;;9.27;2.78;;;;;;;6.87;nan;99801.69;5038132;28;20044;-85
2022/11/24 01:15:24;;;;;;;11.52;3.00;;;;;;;6.85;nan;99813.31;5046283;28;20048;-85
2022/11/24 01:17:49;;;;;;;9.63;2.85;;;;;;;6.84;nan;99819.53;5033461;28;20059;-85
2022/11/24 01:20:15;;;;;;;11.68;3.15;;;;;;;6.84;nan;99822.16;5051834;28;20028;-84
2022/11/24 01:22:41;;;;;;;13.88;2.95;;;;;;;6.80;nan;99817.19;5044184;28;20049;-85
2022/11/24 01:25:08;;;;;;;6.15;2.22;;;;;;;6.81;nan;99816.22;5036212;28;20033;-84
2022/11/24 01:27:33;;;;;;;8.77;2.50;;;;;;;6.80;nan;99811.13;5036748;28;20052;-85
2022/11/24 01:29:59;;;;;;;8.00;2.60;;;;;;;6.78;nan;99818.31;5050935;28;20045;-85
2022/11/24 01:32:24;;;;;;;10.50;2.72;;;;;;;6.76;nan;99815.81;5030425;28;20030;-85
2022/11/24 01:34:50;;;;;;;7.97;2.63;;;;;;;6.77;nan;99817.50;5035884;28;20042;-85
2022/11/24 01:37:15;;;;;;;11.60;3.15;;;;;;;6.77;nan;99824.56;5036172;28;20565;-85
2022/11/24 01:39:40;;;;;;;10.73;2.75;;;;;;;6.81;nan;99833.78;5032678;28;20025;-84
2022/11/24 01:42:06;;;;;;;9.32;2.90;;;;;;;6.85;nan;99832.53;5047676;28;20048;-85
2022/11/24 01:44:32;;;;;;;11.63;2.97;;;;;;;6.84;nan;99838.78;5043843;28;20064;-85
2022/11/24 01:47:16;;;;;;;8.75;3.00;;;;;;;6.84;nan;99835.28;5052324;28;20585;-84
2022/11/24 01:49:52;;;;;;;9.85;2.90;;;;;;;6.85;nan;99834.34;5064244;28;20105;-85
2022/11/24 01:52:23;;;;;;;10.68;3.28;;;;;;;6.90;nan;99845.25;5051321;28;20024;-84
2022/11/24 01:54:52;;;;;;;;;;;;;;;6.98;nan;99840.94;5049600;28;20037;-85
2022/11/24 01:57:25;;;;;;;13.05;3.13;;;;;;;7.11;nan;99850.28;5064347;28;19994;-85
2022/11/24 01:59:56;;;;;;;9.27;3.05;;;;;;;7.21;nan;99846.59;5057575;28;20057;-85
2022/11/24 02:02:23;;;;;;;10.40;2.88;;;;;;;7.30;nan;99844.09;5045827;28;20041;-85
2022/11/24 02:04:50;;;;;;;7.53;3.00;;;;;;;7.39;nan;99858.97;5028549;28;20028;-84
2022/11/24 02:07:15;;;;;;;8.15;3.13;;;;;;;7.47;nan;99858.25;5049518;28;20033;-85
2022/11/24 02:09:50;;;;;;;10.18;3.42;;;;;;;7.52;nan;99856.00;5029437;28;21123;-84
2022/11/24 02:12:15;;;;;;;9.80;2.95;;;;;;;7.57;nan;99851.09;5027080;28;20037;-85
2022/11/24 02:14:42;;;;;;;8.88;2.70;;;;;;;7.63;nan;99853.16;5033124;28;20029;-85
2022/11/24 02:17:08;;;;;;;9.63;2.60;;;;;;;7.67;nan;99846.59;5046377;28;20029;-85
2022/11/24 02:19:49;;;;;;;7.30;2.30;;;;;;;7.72;nan;99848.78;5032002;28;20040;-85
2022/11/24 02:22:31;;;;;;;10.57;2.88;;;;;;;7.76;nan;99856.22;5029535;28;20037;-85
2022/11/24 02:25:16;;;;;;;10.52;2.83;;;;;;;7.75;nan;99851.13;5041156;28;20098;-85
2022/11/24 02:27:43;;;;;;;8.40;2.45;;;;;;;7.70;nan;99848.94;5025479;28;20029;-84
2022/11/24 02:30:09;;;;;;;11.57;2.83;;;;;;;7.64;nan;99844.25;5041320;28;20694;-84
2022/11/24 02:32:39;;;;;;;12.20;2.80;;;;;;;7.65;nan;99845.91;5046688;28;20065;-85
2022/11/24 02:35:07;;;;;;;8.57;2.78;;;;;;;7.64;nan;99852.16;5038399;28;20030;-85
2022/11/24 02:37:32;;;;;;;9.38;2.83;;;;;;;7.58;nan;99844.84;5026882;28;20657;-85
2022/11/24 02:39:57;;;;;;;9.50;2.40;;;;;;;7.55;nan;99845.16;5029447;28;20033;-84
2022/11/24 02:42:25;;;;;;;9.73;2.22;;;;;;;7.47;nan;99843.28;5028993;28;20087;-85
2022/11/24 02:44:54;;;;;;;10.05;2.55;;;;;;;7.36;nan;99838.22;5046927;28;20104;-84
2022/11/24 02:47:19;;;;;;;13.45;2.83;;;;;;;7.39;nan;99845.84;5046052;28;20490;-85
2022/11/24 02:49:45;;;;;;;8.82;2.60;;;;;;;7.35;nan;99853.19;5048881;28;20128;-88
2022/11/24 02:52:10;;;;;;;10.57;2.83;;;;;;;7.32;nan;99844.78;5029708;28;20112;-86
2022/11/24 02:54:35;;;;;;;8.13;2.35;;;;;;;7.29;nan;99848.50;5029714;28;20162;-87
2022/11/24 02:57:01;;;;;;;11.32;2.90;;;;;;;7.30;nan;99852.78;5027651;28;20108;-88
2022/11/24 02:59:26;;;;;;;9.13;2.60;;;;;;;7.27;nan;99839.09;5026272;28;20033;-87
2022/11/24 03:01:52;;;;;;;8.85;2.78;;;;;;;7.26;nan;99846.16;5030252;28;20390;-87
2022/11/24 03:04:17;;;;;;;13.60;3.10;;;;;;;7.25;nan;99846.34;5028473;28;20102;-88
2022/11/24 03:06:43;;;;;;;10.13;2.50;;;;;;;7.24;nan;99850.75;5030573;28;20040;-87
2022/11/24 03:09:09;;;;;;;9.48;2.75;;;;;;;7.22;nan;99857.94;5030527;28;20040;-87
2022/11/24 03:11:35;;;;;;;10.85;2.60;;;;;;;7.20;nan;99857.28;5029970;28;20041;-86
2022/11/24 03:14:00;;;;;;;10.45;2.45;;;;;;;7.16;nan;99861.19;5028022;28;20025;-87
2022/11/24 03:16:26;;;;;;;11.10;2.90;;;;;;;7.15;nan;99860.34;5046047;28;20025;-88
2022/11/24 03:18:52;;;;;;;8.70;2.17;;;;;;;7.17;nan;99865.44;5029808;28;20048;-88
2022/11/24 03:21:17;;;;;;;13.57;2.60;;;;;;;7.18;nan;99867.94;5027737;28;20107;-88
2022/11/24 03:23:43;;;;;;;11.48;2.42;;;;;;;7.18;nan;99861.88;5046307;28;20037;-87
2022/11/24 03:26:10;;;;;;;9.38;2.40;;;;;;;7.19;nan;99869.59;5029707;28;20028;-87
2022/11/24 03:28:36;;;;;;;10.75;2.70;;;;;;;7.15;nan;99873.50;5026814;28;20137;-88
2022/11/24 03:31:01;;;;;;;8.85;2.22;;;;;;;7.16;nan;99872.50;5025787;28;20481;-87
2022/11/24 03:33:27;;;;;;;10.13;2.58;;;;;;;7.17;nan;99875.97;5027415;28;20029;-87
2022/11/24 03:35:52;;;;;;;8.20;2.40;;;;;;;7.19;nan;99868.75;5023519;28;20410;-87
2022/11/24 03:38:18;;;;;;;9.48;2.42;;;;;;;7.22;nan;99869.31;5025940;28;20037;-86
2022/11/24 03:40:43;;;;;;;11.07;2.60;;;;;;;7.31;nan;99872.03;5028283;28;20033;-86
2022/11/24 03:43:08;;;;;;;10.95;2.42;;;;;;;7.39;nan;99870.31;5022828;28;20044;-87
2022/11/24 03:45:34;;;;;;;12.63;3.15;;;;;;;7.45;nan;99861.81;5019951;28;20025;-87
2022/11/24 03:48:00;;;;;;;12.07;2.63;;;;;;;7.53;nan;99863.75;5029563;28;20053;-87
2022/11/24 03:50:25;;;;;;;12.70;2.83;;;;;;;7.54;nan;99864.56;5025312;28;20048;-87
2022/11/24 03:52:50;;;;;;;16.83;3.15;;;;;;;7.57;nan;99866.88;5028795;28;20063;-86
2022/11/24 03:55:16;;;;;;;14.13;3.30;;;;;;;7.55;nan;99868.84;5029386;28;20060;-87
2022/11/24 03:57:41;;;;;;;13.63;3.22;;;;;;;7.58;nan;99869.38;5030037;28;20163;-87
2022/11/24 04:00:07;;;;;;;12.60;3.00;;;;;;;7.57;nan;99869.53;5027955;28;20782;-86
2022/11/24 04:02:32;;;;;;;8.55;2.78;;;;;;;7.59;nan;99868.41;5026896;28;20566;-87
2022/11/24 04:04:58;;;;;;;14.52;3.15;;;;;;;7.66;nan;99869.44;5036707;28;20156;-86
2022/11/24 04:07:23;;;;;;;10.73;3.47;;;;;;;7.72;nan;99873.28;5026084;28;20057;-87
2022/11/24 04:09:48;;;;;;;7.93;2.60;;;;;;;7.75;nan;99872.19;5027957;28;20033;-87
2022/11/24 04:14:58;;;;;;;11.85;2.55;;;;;;;7.83;nan;99886.22;5034888;28;20567;-87
2022/11/24 04:17:23;;;;;;;14.30;2.90;;;;;;;7.89;nan;99887.44;5024779;28;20029;-87
2022/11/24 04:19:48;;;;;;;12.40;2.63;;;;;;;7.85;nan;99876.38;5039723;28;20037;-87
2022/11/24 04:22:14;;;;;;;10.05;2.85;;;;;;;7.95;nan;99872.84;5027669;28;20037;-87
2022/11/24 04:24:39;;;;;;;10.73;2.50;;;;;;;7.98;nan;99883.06;5021443;28;20509;-87
2022/11/24 04:27:04;;;;;;;13.13;2.80;;;;;;;8.01;nan;99880.97;5025236;28;20072;-87
2022/11/24 04:29:30;;;;;;;11.32;2.60;;;;;;;8.05;nan;99887.56;5026374;28;20125;-87
2022/11/24 04:31:55;;;;;;;10.27;2.95;;;;;;;8.06;nan;99883.16;5032576;28;20111;-87
2022/11/24 04:34:20;;;;;;;10.93;2.67;;;;;;;8.08;nan;99891.75;5032614;28;20033;-87
2022/11/24 04:36:46;;;;;;;9.52;2.60;;;;;;;8.11;nan;99896.69;5032751;28;20112;-87
2022/11/24 04:39:11;;;;;;;13.25;2.78;;;;;;;8.09;nan;99894.19;5033433;28;20036;-87
2022/11/24 04:41:36;;;;;;;11.13;2.60;;;;;;;8.11;nan;99898.50;5032522;28;20036;-87
2022/11/24 04:44:01;;;;;;;12.00;2.80;;;;;;;8.11;nan;99906.41;5050230;28;20564;-89
2022/11/24 04:46:27;;;;;;;13.73;2.85;;;;;;;8.14;nan;99914.81;5032660;28;20079;-88
2022/11/24 04:48:52;;;;;;;12.27;2.60;;;;;;;8.17;nan;99905.78;5032387;28;20040;-87
2022/11/24 04:51:17;;;;;;;12.95;2.78;;;;;;;8.16;nan;99902.34;5029990;28;20410;-87
2022/11/24 04:53:43;;;;;;;10.43;2.47;;;;;;;8.16;nan;99902.34;5030064;28;20029;-88
2022/11/24 04:56:08;;;;;;;7.90;2.35;;;;;;;8.19;nan;99906.47;5048717;28;20411;-87
2022/11/24 04:58:34;;;;;;;11.60;3.17;;;;;;;8.19;nan;99912.56;5021001;28;20046;-86
2022/11/24 05:00:59;;;;;;;11.50;2.83;;;;;;;8.20;nan;99914.22;5045729;28;20029;-87
2022/11/24 05:03:24;;;;;;;9.85;2.53;;;;;;;8.22;nan;99914.06;5032200;28;20048;-87
2022/11/24 05:05:50;;;;;;;13.07;3.00;;;;;;;8.21;nan;99925.59;5033546;28;20127;-84
2022/11/24 05:08:15;;;;;;;12.85;2.65;;;;;;;8.22;nan;99935.13;5033155;28;20029;-85
2022/11/24 05:10:41;;;;;;;10.07;2.53;;;;;;;8.18;nan;99937.25;5034834;28;20033;-85
2022/11/24 05:13:11;;;;;;;10.30;2.60;;;;;;;8.18;nan;99939.06;5025905;28;20041;-84
2022/11/24 05:15:38;;;;;;;12.75;2.95;;;;;;;8.19;nan;99944.16;5045678;28;20049;-86
2022/11/24 05:18:05;;;;;;;10.38;2.35;;;;;;;8.20;nan;99940.56;5051945;28;20089;-85
2022/11/24 05:20:30;;;;;;;10.13;2.85;;;;;;;8.21;nan;99939.56;5048805;28;20092;-86
2022/11/24 05:23:00;;;;;;;13.38;3.20;;;;;;;8.22;nan;99938.59;5034039;28;20175;-87
2022/11/24 05:25:26;;;;;;;11.07;3.30;;;;;;;8.23;nan;99932.34;5034027;28;20524;-87
2022/11/24 05:27:51;;;;;;;12.68;2.75;;;;;;;8.22;nan;99943.88;5052172;28;20037;-87
2022/11/24 05:30:16;;;;;;;9.25;2.60;;;;;;;8.25;nan;99938.31;5024564;28;20095;-87
2022/11/24 05:32:42;;;;;;;11.00;2.83;;;;;;;8.29;nan;99944.94;5032442;28;20033;-87
2022/11/24 05:35:08;;;;;;;11.70;2.80;;;;;;;8.31;nan;99957.94;5029764;28;20033;-87
2022/11/24 05:37:34;;;;;;;14.48;3.15;;;;;;;8.32;nan;99948.22;5024231;28;20068;-87
2022/11/24 05:39:59;;;;;;;13.25;3.17;;;;;;;8.32;nan;99962.22;5030950;28;20420;-87
2022/11/24 05:42:39;;;;;;;14.32;3.30;;;;;;;8.35;nan;99963.75;5027781;28;20044;-87
2022/11/24 05:45:10;;;;;;;15.98;3.08;;;;;;;8.29;nan;99968.63;5031639;28;20037;-87
2022/11/24 05:47:36;;;;;;;15.93;2.90;;;;;;;8.32;nan;99971.91;5030955;28;20036;-87
2022/11/24 05:50:01;;;;;;;11.93;3.17;;;;;;;8.32;nan;99971.91;5031530;28;20032;-87
2022/11/24 05:52:27;;;;;;;12.05;3.00;;;;;;;8.33;nan;99974.41;5030681;28;20033;-88
2022/11/24 05:54:52;;;;;;;17.08;3.70;;;;;;;8.35;nan;99975.09;5028558;28;20487;-87
2022/11/24 05:57:17;;;;;;;12.70;2.70;;;;;;;8.35;nan;99974.28;5025855;28;20040;-88
2022/11/24 05:59:44;;;;;;;15.35;3.42;;;;;;;8.36;nan;99973.28;5028461;28;20037;-87
2022/11/24 06:02:09;;;;;;;13.85;3.15;;;;;;;8.38;nan;99976.59;5030753;28;20036;-87
2022/11/24 06:04:35;;;;;;;12.57;3.00;;;;;;;8.37;nan;99967.06;5031920;28;20033;-88
2022/11/24 06:07:01;;;;;;;10.70;3.13;;;;;;;8.39;nan;99971.19;5030966;28;20036;-87
2022/11/24 06:09:26;;;;;;;12.40;3.15;;;;;;;8.40;nan;99966.78;5029426;28;20037;-87
2022/11/24 06:11:52;;;;;;;11.25;2.78;;;;;;;8.40;nan;99972.03;5030112;28;20086;-87
2022/11/24 06:14:17;;;;;;;13.32;2.75;;;;;;;8.38;nan;99974.78;5029347;28;20045;-88
2022/11/24 06:16:42;;;;;;;13.05;3.30;;;;;;;8.39;nan;99984.38;5025626;28;20509;-87
2022/11/24 06:19:11;;;;;;;14.20;3.20;;;;;;;8.33;nan;99971.78;5040320;28;20127;-87
2022/11/24 06:21:36;;;;;;;13.30;2.78;;;;;;;8.22;nan;99980.75;5035341;28;20025;-88
2022/11/24 06:24:02;;;;;;;11.13;2.70;;;;;;;8.15;nan;99982.31;5027920;28;20137;-87
2022/11/24 06:26:27;;;;;;;14.05;3.05;;;;;;;8.12;nan;99985.25;5031548;28;20375;-85
2022/11/24 06:28:52;;;;;;;15.13;2.90;;;;;;;8.06;nan;99975.31;5047603;28;20044;-85
2022/11/24 06:31:18;;;;;;;14.63;3.75;;;;;;;8.06;nan;99996.38;5028808;28;20033;-85
2022/11/24 06:33:43;;;;;;;13.45;3.58;;;;;;;7.99;nan;100000.59;5043151;28;20063;-85
2022/11/24 06:36:13;;;;;;;10.60;2.77;;;;;;;8.05;nan;99999.97;5029432;28;20413;-84
2022/11/24 06:38:38;;;;;;;9.98;2.58;;;;;;;8.08;nan;100018.13;5030483;28;20397;-84
2022/11/24 06:41:06;;;;;;;15.02;3.40;;;;;;;8.02;nan;100009.00;5027088;28;20394;-84
2022/11/24 06:43:33;;;;;;;12.60;3.10;;;;;;;7.97;nan;100020.97;5029744;28;20398;-85
2022/11/24 06:45:58;;;;;;;15.30;3.25;;;;;;;7.87;nan;100016.56;5026088;28;20088;-85
2022/11/24 06:48:25;;;;;;;11.05;2.85;;;;;;;7.83;nan;100022.28;5027220;28;20637;-85
2022/11/24 06:50:51;;;;;;;12.10;3.03;;;;;;;7.81;nan;100025.03;5030268;28;20090;-85
2022/11/24 06:53:17;;;;;;;13.95;3.00;;;;;;;7.77;nan;100026.34;5026962;28;20041;-84
2022/11/24 06:55:44;;;;;;;17.58;3.22;;;;;;;7.74;nan;100018.72;5027613;28;20490;-85
2022/11/24 06:58:09;;;;;;;11.25;3.10;;;;;;;7.72;nan;100030.34;5046144;28;20398;-86
2022/11/24 07:00:37;;;;;;;12.73;2.60;;;;;;;7.71;nan;100028.72;5027508;28;20025;-85
2022/11/24 07:03:03;;;;;;;17.92;3.30;;;;;;;7.68;nan;100032.47;5027833;28;20144;-85
2022/11/24 07:05:28;;;;;;;11.65;3.30;;;;;;;7.61;nan;100034.84;5030828;28;20104;-85
2022/11/24 07:07:54;;;;;;;13.45;3.13;;;;;;;7.63;nan;100039.97;5027625;28;20053;-85
2022/11/24 07:10:19;;;;;;;9.35;2.65;;;;;;;7.62;nan;100044.38;5029697;28;21494;-86
2022/11/24 07:12:44;;;;;;;8.43;2.80;;;;;;;7.63;nan;100048.69;5031004;28;20535;-86
2022/11/24 07:15:10;;;;;;;13.48;3.28;;;;;;;7.62;nan;100051.44;5028076;28;20029;-86
2022/11/24 07:17:39;;;;;;;10.80;2.80;;;;;;;7.62;nan;100056.72;5030664;28;20127;-85
2022/11/24 07:20:06;;;;;;;11.18;3.15;;;;;;;7.63;nan;100055.75;5030711;28;20040;-86
2022/11/24 07:22:32;;;;;;;13.38;2.97;;;;;;;7.65;nan;100061.69;5048707;28;20048;-86
2022/11/24 07:24:57;;;;;;;14.27;3.05;;;;;;;7.61;nan;100055.91;5041052;28;20025;-86
2022/11/24 07:27:22;;;;;;;15.98;3.50;;;;;;;7.65;nan;100069.56;5027194;28;20060;-86
2022/11/24 07:29:48;;;;;;;12.30;3.35;;;;;;;7.64;nan;100070.56;5031204;28;20033;-85
2022/11/24 07:32:13;;;;;;;10.10;3.08;;;;;;;7.65;nan;100080.09;5020499;28;20040;-86
2022/11/24 07:34:38;;;;;;;14.73;3.17;;;;;;;7.66;nan;100074.69;5029183;28;20039;-86
2022/11/24 07:37:04;;;;;;;11.30;2.70;;;;;;;7.68;nan;100079.00;5027889;28;20509;-86
2022/11/24 07:39:29;;;;;;;12.57;2.95;;;;;;;7.68;nan;100079.00;5039117;28;20038;-86
2022/11/24 07:41:54;;;;;;;10.13;3.20;;;;;;;7.67;nan;100083.41;5044474;28;20112;-85
2022/11/24 07:44:20;;;;;;;15.95;3.50;;;;;;;7.69;nan;100088.56;5030471;28;20124;-86
2022/11/24 07:46:45;;;;;;;14.13;3.75;;;;;;;7.69;nan;100099.91;5031249;28;20040;-86
2022/11/24 07:49:11;;;;;;;12.73;3.28;;;;;;;7.76;nan;100100.16;5028284;28;20045;-87
2022/11/24 07:51:41;;;;;;;10.02;2.97;;;;;;;7.78;nan;100088.50;5045767;28;20036;-86
2022/11/24 07:54:06;;;;;;;;;;;;;;;7.82;nan;100094.34;5032040;28;20029;-86
2022/11/24 07:56:31;;;;;;;14.60;3.45;;;;;;;7.84;nan;100097.63;5031826;28;19917;-86
2022/11/24 07:58:57;;;;;;;12.60;3.10;;;;;;;7.87;nan;100103.44;5036459;28;20064;-86
2022/11/24 08:01:22;;;;;;;10.35;2.63;;;;;;;7.87;nan;100102.63;5032552;28;20510;-85
2022/11/24 08:03:47;;;;;;;11.57;2.75;;;;;;;7.90;nan;100099.69;5031874;28;20513;-86
2022/11/24 08:06:14;;;;;;;10.73;2.78;;;;;;;7.94;nan;100102.88;5032610;28;20033;-86
2022/11/24 08:08:39;;;;;;;12.27;3.08;;;;;;;7.94;nan;100111.59;5033020;28;20083;-87
2022/11/24 08:11:06;;;;;;;11.45;2.83;;;;;;;7.95;nan;100117.69;5031934;28;20041;-86
2022/11/24 08:13:32;;;;;;;10.88;3.35;;;;;;;7.96;nan;100119.34;5034092;28;20303;-86
2022/11/24 08:16:03;;;;;;;15.70;3.35;;;;;;;7.99;nan;100124.34;5033294;28;20061;-86
2022/11/24 08:18:28;;;;;;;10.90;3.13;;;;;;;8.00;nan;100125.97;5023612;28;20487;-86
2022/11/24 08:20:56;;;;;;;17.02;4.05;;;;;;;8.00;nan;100129.44;5048575;28;20039;-86
2022/11/24 08:23:21;;;;;;;15.43;3.80;;;;;;;7.96;nan;100132.50;5033921;28;20040;-86
2022/11/24 08:25:47;;;;;;;13.98;3.15;;;;;;;7.89;nan;100124.38;5032152;28;20037;-87
2022/11/24 08:28:12;;;;;;;11.43;2.85;;;;;;;7.90;nan;100130.47;5031108;28;20065;-86
2022/11/24 08:30:37;;;;;;;14.02;2.95;;;;;;;7.97;nan;100134.16;5031248;28;20533;-86
2022/11/24 08:33:06;;;;;;;10.82;3.28;;;;;;;8.17;nan;100134.91;5049154;28;20036;-86
2022/11/24 08:35:35;;;;;;;16.73;3.70;;;;;;;8.31;nan;100134.41;5034501;28;20029;-86
2022/11/24 08:38:00;;;;;;;15.38;3.72;;;;;;;8.32;nan;100124.72;5047549;28;20036;-86
2022/11/24 08:40:26;;;;;;;14.05;3.20;;;;;;;8.40;nan;100138.03;5052624;28;20043;-86
2022/11/24 08:42:51;;;;;;;16.10;3.05;;;;;;;8.42;nan;100138.72;5034981;28;20135;-86
2022/11/24 08:45:17;;;;;;;18.80;3.25;;;;;;;8.47;nan;100136.47;5032797;28;20098;-86
2022/11/24 08:47:42;;;;;;;8.70;2.85;;;;;;;8.57;nan;100147.75;5051531;28;20060;-86
2022/11/24 08:50:08;;;;;;;9.70;2.97;;;;;;;8.66;nan;100149.50;5035842;28;20033;-86
2022/11/24 08:52:34;;;;;;;13.23;3.10;;;;;;;8.72;nan;100145.44;5045488;28;20038;-86
2022/11/24 08:54:59;;;;;;;11.20;3.45;;;;;;;8.76;nan;100154.72;5041700;28;20038;-86
2022/11/24 08:57:24;;;;;;;16.55;3.22;;;;;;;8.80;nan;100160.53;5045284;28;20029;-86
2022/11/24 08:59:49;;;;;;;9.70;2.60;;;;;;;8.88;nan;100160.59;5027831;28;20029;-86
2022/11/24 09:02:15;;;;;;;14.90;3.35;;;;;;;8.89;nan;100165.75;5048979;28;20139;-86
2022/11/24 09:04:40;;;;;;;11.55;2.55;;;;;;;8.85;nan;100176.72;5034387;28;20033;-86
2022/11/24 09:07:06;;;;;;;8.75;2.78;;;;;;;8.83;nan;100168.97;5043774;28;20064;-87
2022/11/24 09:09:31;;;;;;;10.43;2.40;;;;;;;8.79;nan;100182.59;5037874;28;20056;-86
2022/11/24 09:11:56;;;;;;;13.27;2.95;;;;;;;8.71;nan;100185.97;5026142;28;20128;-86
2022/11/24 09:14:22;;;;;;;10.90;2.70;;;;;;;8.65;nan;100186.53;5029514;28;20021;-86
2022/11/24 09:16:47;;;;;;;13.07;2.85;;;;;;;8.64;nan;100180.44;5030087;28;20030;-86
2022/11/24 09:19:13;;;;;;;13.32;3.35;;;;;;;8.63;nan;100177.97;5048300;28;20413;-86
2022/11/24 09:21:38;;;;;;;10.10;2.45;;;;;;;8.58;nan;100182.84;5030354;28;20037;-86
2022/11/24 09:24:06;;;;;;;8.80;2.47;;;;;;;8.54;nan;100182.31;5027052;28;20521;-86
2022/11/24 09:26:34;;;;;;;10.93;2.75;;;;;;;8.75;nan;100176.78;5050960;28;20475;-86
2022/11/24 09:29:01;;;;;;;10.77;2.80;;;;;;;9.01;nan;100179.53;5033685;28;20116;-86
2022/11/24 09:31:29;;;;;;;7.53;2.47;;;;;;;9.14;nan;100187.06;5040431;28;20029;-86
2022/11/24 09:33:55;;;;;;;9.00;2.78;;;;;;;9.25;nan;100193.94;5039818;28;20029;-86
2022/11/24 09:36:21;;;;;;;10.35;2.92;;;;;;;9.33;nan;100197.44;5033090;28;20513;-86
2022/11/24 09:38:46;;;;;;;6.55;2.25;;;;;;;9.45;nan;100205.97;5032229;28;20517;-87
2022/11/24 09:41:36;;;;;;;7.35;2.28;;;;;;;9.62;nan;100211.38;5045959;28;20036;-86
2022/11/24 09:44:32;;;;;;;8.63;2.30;;;;;;;9.61;nan;100215.00;5049388;28;20040;-86
2022/11/24 09:47:07;;;;;;;9.60;2.20;;;;;;;9.52;nan;100224.66;5025733;28;20037;-87
2022/11/24 09:49:41;;;;;;;11.02;2.38;;;;;;;9.52;nan;100227.31;5026430;28;20464;-86
2022/11/24 09:52:15;;;;;;;7.57;1.98;;;;;;;9.55;nan;100221.72;5039766;28;20033;-86
2022/11/24 09:54:52;;;;;;;6.65;1.95;;;;;;;9.69;nan;100222.97;5028072;28;20056;-86
2022/11/24 09:57:21;;;;;;;8.80;2.05;;;;;;;9.71;nan;100228.94;5042032;28;20115;-86
2022/11/24 09:59:46;;;;;;;7.43;2.47;;;;;;;9.67;nan;100232.88;5026852;28;20320;-85
2022/11/24 10:02:12;;;;;;;6.53;1.80;;;;;;;9.61;nan;100236.13;5046302;28;20086;-86
2022/11/24 10:04:41;;;;;;;5.20;1.80;;;;;;;9.56;nan;100239.22;5031429;28;20025;-85
2022/11/24 10:07:10;;;;;;;6.50;1.80;;;;;;;9.57;nan;100246.97;5040983;28;20060;-85
2022/11/24 10:09:53;;;;;;;7.22;1.90;;;;;;;9.56;nan;100250.59;5052847;28;20037;-85
2022/11/24 10:12:49;;;;;;;6.22;2.10;;;;;;;9.72;nan;100251.72;5032145;28;20041;-86
2022/11/24 10:15:14;;;;;;;6.63;2.00;;;;;;;9.77;nan;100252.06;5033771;28;20061;-85
2022/11/24 10:18:10;;;;;;;8.33;2.30;;;;;;;9.73;nan;100250.75;5025966;28;20480;-86
2022/11/24 10:20:58;;;;;;;9.02;2.13;;;;;;;9.67;nan;100246.06;5035140;28;20282;-85
2022/11/24 10:23:49;;;;;;;6.05;1.80;;;;;;;9.65;nan;100246.22;5046096;28;20244;-85
2022/11/24 10:26:32;;;;;;;6.53;1.73;;;;;;;9.66;nan;100252.34;5047282;28;20052;-85
2022/11/24 10:28:58;;;;;;;5.18;1.70;;;;;;;9.63;nan;100244.69;5031255;28;20087;-86
2022/11/24 10:31:31;;;;;;;9.73;2.42;;;;;;;9.68;nan;100253.03;5033362;28;20017;-86
2022/11/24 10:34:02;;;;;;;5.63;1.88;;;;;;;9.73;nan;100256.84;5050372;28;20092;-85
2022/11/24 10:36:43;;;;;;;8.15;2.15;;;;;;;9.95;nan;100260.81;5031530;28;20033;-86
2022/11/24 10:39:45;;;;;;;6.22;2.10;;;;;;;10.13;nan;100263.41;5030991;28;20036;-86
2022/11/24 10:42:23;;;;;;;8.10;1.90;;;;;;;10.20;nan;100255.66;5038911;28;20029;-86
2022/11/24 10:45:16;;;;;;;8.00;2.30;;;;;;;10.19;nan;100248.75;5031592;28;20036;-86
2022/11/24 10:47:43;;;;;;;5.50;1.83;;;;;;;10.17;nan;100250.72;5040117;28;20036;-85
2022/11/24 10:50:26;;;;;;;6.93;1.95;;;;;;;10.16;nan;100247.25;5021168;28;20513;-86
2022/11/24 10:53:21;;;;;;;7.75;2.13;;;;;;;10.20;nan;100242.47;5029557;28;20045;-86
2022/11/24 10:55:53;;;;;;;6.25;1.60;;;;;;;10.22;nan;100245.78;5042549;28;20048;-86
2022/11/24 10:58:22;;;;;;;4.22;1.70;;;;;;;10.17;nan;100243.59;5042617;28;20107;-87
2022/11/24 11:00:48;;;;;;;6.88;1.88;;;;;;;10.16;nan;100241.97;5030458;28;20116;-86
2022/11/24 11:03:18;;;;;;;7.07;1.83;;;;;;;10.22;nan;100256.34;5029420;28;20108;-87
2022/11/24 11:05:49;;;;;;;6.53;2.17;;;;;;;10.32;nan;100254.47;5030711;28;20025;-86
2022/11/24 11:08:15;;;;;;;6.18;1.77;;;;;;;10.46;nan;100263.63;5025784;28;20280;-86
2022/11/24 11:10:42;;;;;;;6.10;1.90;;;;;;;10.50;nan;100248.28;5027577;28;20444;-86
2022/11/24 11:13:29;;;;;;;7.72;2.25;;;;;;;10.59;nan;100253.44;5030152;28;20028;-86
2022/11/24 11:15:57;;;;;;;6.20;2.00;;;;;;;10.70;nan;100257.63;5029722;28;20036;-85
2022/11/24 11:18:30;;;;;;;5.90;2.00;;;;;;;10.86;nan;100256.84;5030560;28;20029;-86
2022/11/24 11:21:00;;;;;;;5.68;1.77;;;;;;;10.87;nan;100255.88;5028267;28;20437;-87
2022/11/24 11:23:34;;;;;;;9.32;2.03;;;;;;;11.00;nan;100264.16;5035971;28;20169;-87
2022/11/24 11:26:24;;;;;;;5.10;1.83;;;;;;;11.21;nan;100257.63;5045183;28;20032;-86
2022/11/24 11:29:02;;;;;;;5.15;1.80;;;;;;;11.38;nan;100267.22;5025384;28;20113;-86
2022/11/24 11:31:28;;;;;;;6.78;2.10;;;;;;;11.60;nan;100267.59;5028802;28;20033;-87
2022/11/24 11:34:21;;;;;;;6.50;2.05;;;;;;;11.85;nan;100271.91;5026249;28;20043;-88
2022/11/24 11:36:50;;;;;;;6.18;1.63;;;;;;;12.05;nan;100267.09;5025299;28;20052;-88
2022/11/24 11:39:22;;;;;;;7.07;2.20;;;;;;;12.06;nan;100274.06;5029303;28;20352;-87
2022/11/24 11:42:02;;;;;;;4.22;1.70;;;;;;;11.95;nan;100270.94;5025766;28;20037;-87
2022/11/24 11:44:34;;;;;;;4.43;1.83;;;;;;;11.78;nan;100270.09;5028664;28;20037;-88
2022/11/24 11:47:07;;;;;;;10.50;2.33;;;;;;;11.63;nan;100273.41;5024413;28;20033;-88
2022/11/24 11:49:35;;;;;;;4.55;1.48;;;;;;;11.42;nan;100275.69;5036413;28;20037;-87
2022/11/24 11:52:31;;;;;;;6.05;1.67;;;;;;;11.24;nan;100289.88;5047717;28;20028;-88
2022/11/24 11:55:21;;;;;;;6.85;1.85;;;;;;;11.05;nan;100282.22;5029271;28;20033;-88
2022/11/24 11:57:56;;;;;;;6.75;1.98;;;;;;;10.96;nan;100284.00;5025066;28;20379;-88